Time,TemperatureF,DewpointF,PressureIn,WindDirection,WindDirectionDegrees,WindSpeedMPH,WindSpeedGustMPH,Humidity,HourlyPrecipIn,Conditions,Clouds,dailyrainin,SoftwareType,DateUTC
2013-10-26 00:08:00,39.7,27.0,30.45,East,89,0.0,4.0,62,0.00,,,0.00,weatherlink.com 1.10,2013-10-26 04:08:00,
2013-10-26 00:23:00,39.3,28.0,30.45,NE,56,2.0,5.0,63,0.00,,,0.00,weatherlink.com 1.10,2013-10-26 04:23:00,
2013-10-26 00:38:00,38.7,27.0,30.45,ENE,75,3.0,4.0,64,0.00,,,0.00,weatherlink.com 1.10,2013-10-26 04:38:00,
2013-10-26 00:53:00,37.7,28.0,30.44,East,93,3.0,6.0,67,0.00,,,0.00,weatherlink.com 1.10,2013-10-26 04:53:00,
2013-10-26 01:08:00,36.3,28.0,30.43,ENE,72,2.0,6.0,72,0.00,,,0.00,weatherlink.com 1.10,2013-10-26 05:08:00,
2013-10-26 01:23:00,36.2,29.0,30.43,East,89,2.0,6.0,74,0.00,,,0.00,weatherlink.com 1.10,2013-10-26 05:23:00,
2013-10-26 01:38:00,36.6,29.0,30.43,East,91,3.0,7.0,73,0.00,,,0.00,weatherlink.com 1.10,2013-10-26 05:38:00,
2013-10-26 01:53:00,36.2,28.0,30.43,East,79,3.0,7.0,73,0.00,,,0.00,weatherlink.com 1.10,2013-10-26 05:53:00,
2013-10-26 02:08:00,36.3,28.0,30.42,ENE,75,4.0,7.0,73,0.00,,,0.00,weatherlink.com 1.10,2013-10-26 06:08:00,
2013-10-26 02:23:00,36.6,28.0,30.42,East,101,1.0,4.0,72,0.00,,,0.00,weatherlink.com 1.10,2013-10-26 06:23:00,
2013-10-26 02:38:00,36.9,28.0,30.41,East,91,3.0,4.0,71,0.00,,,0.00,weatherlink.com 1.10,2013-10-26 06:38:00,
2013-10-26 02:53:00,36.2,28.0,30.41,East,91,2.0,5.0,72,0.00,,,0.00,weatherlink.com 1.10,2013-10-26 06:53:00,
2013-10-26 03:08:00,36.2,28.0,30.41,East,92,2.0,7.0,72,0.00,,,0.00,weatherlink.com 1.10,2013-10-26 07:08:00,
2013-10-26 03:23:00,35.9,28.0,30.41,ESE,102,2.0,6.0,73,0.00,,,0.00,weatherlink.com 1.10,2013-10-26 07:23:00,
2013-10-26 03:38:00,35.9,28.0,30.40,East,96,2.0,6.0,73,0.00,,,0.00,weatherlink.com 1.10,2013-10-26 07:38:00,
2013-10-26 03:53:00,35.5,28.0,30.40,East,87,0.0,3.0,74,0.00,,,0.00,weatherlink.com 1.10,2013-10-26 07:53:00,
2013-10-26 04:09:00,35.1,28.0,30.40,East,88,0.0,3.0,76,0.00,,,0.00,weatherlink.com 1.10,2013-10-26 08:09:00,
2013-10-26 04:24:00,34.9,28.0,30.40,ESE,103,0.0,3.0,77,0.00,,,0.00,weatherlink.com 1.10,2013-10-26 08:24:00,
2013-10-26 04:39:00,34.7,29.0,30.40,East,88,0.0,1.0,78,0.00,,,0.00,weatherlink.com 1.10,2013-10-26 08:39:00,
2013-10-26 04:54:00,34.7,29.0,30.39,ENE,72,0.0,1.0,78,0.00,,,0.00,weatherlink.com 1.10,2013-10-26 08:54:00,
2013-10-26 05:09:00,34.4,28.0,30.40,East,88,0.0,2.0,78,0.00,,,0.00,weatherlink.com 1.10,2013-10-26 09:09:00,
2013-10-26 05:24:00,33.9,28.0,30.40,East,92,2.0,3.0,79,0.00,,,0.00,weatherlink.com 1.10,2013-10-26 09:24:00,
2013-10-26 05:39:00,33.7,28.0,30.40,East,84,3.0,3.0,81,0.00,,,0.00,weatherlink.com 1.10,2013-10-26 09:39:00,
2013-10-26 05:54:00,33.5,27.0,30.40,East,89,2.0,3.0,78,0.00,,,0.00,weatherlink.com 1.10,2013-10-26 09:54:00,
2013-10-26 06:09:00,34.0,27.0,30.40,ENE,76,1.0,3.0,76,0.00,,,0.00,weatherlink.com 1.10,2013-10-26 10:09:00,
2013-10-26 06:24:00,33.5,28.0,30.40,East,88,0.0,3.0,79,0.00,,,0.00,weatherlink.com 1.10,2013-10-26 10:24:00,
2013-10-26 06:39:00,33.2,27.0,30.40,East,85,0.0,2.0,79,0.00,,,0.00,weatherlink.com 1.10,2013-10-26 10:39:00,
2013-10-26 06:54:00,32.9,27.0,30.40,East,83,2.0,2.0,80,0.00,,,0.00,weatherlink.com 1.10,2013-10-26 10:54:00,
2013-10-26 07:09:00,33.2,27.0,30.40,East,83,0.0,1.0,79,0.00,,,0.00,weatherlink.com 1.10,2013-10-26 11:09:00,
2013-10-26 07:24:00,32.7,28.0,30.40,East,87,2.0,3.0,81,0.00,,,0.00,weatherlink.com 1.10,2013-10-26 11:24:00,
2013-10-26 07:39:00,32.3,27.0,30.40,East,79,3.0,4.0,82,0.00,,,0.00,weatherlink.com 1.10,2013-10-26 11:39:00,
2013-10-26 07:54:00,32.4,28.0,30.40,East,84,0.0,3.0,82,0.00,,,0.00,weatherlink.com 1.10,2013-10-26 11:54:00,
2013-10-26 08:09:00,32.9,28.0,30.40,East,93,3.0,3.0,82,0.00,,,0.00,weatherlink.com 1.10,2013-10-26 12:09:00,
2013-10-26 08:24:00,34.2,28.0,30.41,East,93,0.0,2.0,79,0.00,,,0.00,weatherlink.com 1.10,2013-10-26 12:24:00,
2013-10-26 08:39:00,34.4,29.0,30.40,East,94,2.0,3.0,79,0.00,,,0.00,weatherlink.com 1.10,2013-10-26 12:39:00,
2013-10-26 08:54:00,34.4,29.0,30.41,SE,125,2.0,5.0,80,0.00,,,0.00,weatherlink.com 1.10,2013-10-26 12:54:00,
2013-10-26 09:09:00,35.5,29.0,30.41,ENE,73,1.0,4.0,78,0.00,,,0.00,weatherlink.com 1.10,2013-10-26 13:09:00,
2013-10-26 09:24:00,36.8,29.0,30.41,ESE,106,3.0,5.0,74,0.00,,,0.00,weatherlink.com 1.10,2013-10-26 13:24:00,
2013-10-26 09:39:00,37.3,30.0,30.41,South,173,0.0,6.0,76,0.00,,,0.00,weatherlink.com 1.10,2013-10-26 13:39:00,
2013-10-26 09:54:00,37.2,30.0,30.41,SE,142,1.0,6.0,76,0.00,,,0.00,weatherlink.com 1.10,2013-10-26 13:54:00,
2013-10-26 10:09:00,38.9,31.0,30.41,ENE,76,3.0,8.0,74,0.00,,,0.00,weatherlink.com 1.10,2013-10-26 14:09:00,
2013-10-26 10:24:00,40.9,32.0,30.41,ESE,105,6.0,9.0,71,0.00,,,0.00,weatherlink.com 1.10,2013-10-26 14:24:00,
2013-10-26 10:39:00,42.7,34.0,30.40,East,82,5.0,8.0,70,0.00,,,0.00,weatherlink.com 1.10,2013-10-26 14:39:00,
2013-10-26 10:54:00,43.6,34.0,30.40,SSW,211,3.0,9.0,69,0.00,,,0.00,weatherlink.com 1.10,2013-10-26 14:54:00,
2013-10-26 11:09:00,44.4,35.0,30.40,SE,146,3.0,7.0,69,0.00,,,0.00,weatherlink.com 1.10,2013-10-26 15:09:00,
2013-10-26 11:24:00,45.4,34.0,30.40,West,281,0.0,8.0,65,0.00,,,0.00,weatherlink.com 1.10,2013-10-26 15:24:00,
2013-10-26 11:39:00,47.1,35.0,30.39,East,83,1.0,10.0,62,0.00,,,0.00,weatherlink.com 1.10,2013-10-26 15:39:00,
2013-10-26 11:54:00,48.8,33.0,30.37,South,188,12.0,15.0,54,0.00,,,0.00,weatherlink.com 1.10,2013-10-26 15:54:00,
2013-10-26 12:09:00,48.7,33.0,30.36,SE,127,3.0,15.0,54,0.00,,,0.00,weatherlink.com 1.10,2013-10-26 16:09:00,
2013-10-26 12:24:00,48.0,33.0,30.34,ENE,68,3.0,17.0,57,0.00,,,0.00,weatherlink.com 1.10,2013-10-26 16:24:00,
2013-10-26 12:39:00,50.7,34.0,30.34,SW,218,7.0,15.0,53,0.00,,,0.00,weatherlink.com 1.10,2013-10-26 16:39:00,
2013-10-26 12:54:00,50.9,34.0,30.33,SW,229,9.0,19.0,52,0.00,,,0.00,weatherlink.com 1.10,2013-10-26 16:54:00,
2013-10-26 13:10:00,51.1,33.0,30.32,West,276,5.0,19.0,50,0.00,,,0.00,weatherlink.com 1.10,2013-10-26 17:10:00,
2013-10-26 13:25:00,50.9,32.0,30.32,WNW,284,5.0,16.0,49,0.00,,,0.00,weatherlink.com 1.10,2013-10-26 17:25:00,
2013-10-26 13:40:00,50.8,33.0,30.30,South,175,11.0,18.0,50,0.00,,,0.00,weatherlink.com 1.10,2013-10-26 17:40:00,
2013-10-26 13:55:00,51.1,31.0,30.30,SW,214,6.0,19.0,47,0.00,,,0.00,weatherlink.com 1.10,2013-10-26 17:55:00,
2013-10-26 14:10:00,52.4,31.0,30.29,WSW,250,7.0,13.0,44,0.00,,,0.00,weatherlink.com 1.10,2013-10-26 18:10:00,
2013-10-26 14:25:00,53.4,31.0,30.29,WNW,297,1.0,15.0,42,0.00,,,0.00,weatherlink.com 1.10,2013-10-26 18:25:00,
2013-10-26 14:40:00,53.1,29.0,30.27,WSW,255,8.0,17.0,40,0.00,,,0.00,weatherlink.com 1.10,2013-10-26 18:40:00,
2013-10-26 14:55:00,54.7,29.0,30.27,South,191,10.0,15.0,38,0.00,,,0.00,weatherlink.com 1.10,2013-10-26 18:55:00,
2013-10-26 15:10:00,54.8,29.0,30.26,ESE,102,4.0,16.0,38,0.00,,,0.00,weatherlink.com 1.10,2013-10-26 19:10:00,
2013-10-26 15:25:00,54.7,28.0,30.26,WSW,241,5.0,16.0,36,0.00,,,0.00,weatherlink.com 1.10,2013-10-26 19:25:00,
2013-10-26 15:40:00,54.2,26.0,30.26,WNW,282,3.0,19.0,34,0.00,,,0.00,weatherlink.com 1.10,2013-10-26 19:40:00,
2013-10-26 15:55:00,54.4,28.0,30.26,South,181,3.0,18.0,36,0.00,,,0.00,weatherlink.com 1.10,2013-10-26 19:55:00,
2013-10-26 16:10:00,54.7,29.0,30.25,NNE,20,3.0,13.0,37,0.00,,,0.00,weatherlink.com 1.10,2013-10-26 20:10:00,
2013-10-26 16:25:00,54.4,28.0,30.25,West,274,2.0,14.0,37,0.00,,,0.00,weatherlink.com 1.10,2013-10-26 20:25:00,
2013-10-26 16:40:00,54.4,30.0,30.23,WSW,257,3.0,15.0,39,0.00,,,0.00,weatherlink.com 1.10,2013-10-26 20:40:00,
2013-10-26 16:55:00,54.3,30.0,30.24,SSW,194,5.0,16.0,39,0.00,,,0.00,weatherlink.com 1.10,2013-10-26 20:55:00,
2013-10-26 17:10:00,53.9,30.0,30.23,WSW,242,4.0,13.0,40,0.00,,,0.00,weatherlink.com 1.10,2013-10-26 21:10:00,
2013-10-26 17:25:00,53.8,30.0,30.23,WSW,243,1.0,12.0,40,0.00,,,0.00,weatherlink.com 1.10,2013-10-26 21:25:00,
2013-10-26 17:40:00,54.0,30.0,30.23,SSE,161,2.0,14.0,40,0.00,,,0.00,weatherlink.com 1.10,2013-10-26 21:40:00,
2013-10-26 17:55:00,54.0,29.0,30.22,SW,224,12.0,14.0,39,0.00,,,0.00,weatherlink.com 1.10,2013-10-26 21:55:00,
2013-10-26 18:10:00,54.0,30.0,30.22,WSW,241,10.0,17.0,40,0.00,,,0.00,weatherlink.com 1.10,2013-10-26 22:10:00,
2013-10-26 18:25:00,53.8,30.0,30.22,West,278,4.0,19.0,40,0.00,,,0.00,weatherlink.com 1.10,2013-10-26 22:25:00,
2013-10-26 18:40:00,53.6,30.0,30.21,West,269,4.0,14.0,40,0.00,,,0.00,weatherlink.com 1.10,2013-10-26 22:40:00,
2013-10-26 18:55:00,53.6,30.0,30.22,West,259,5.0,13.0,41,0.00,,,0.00,weatherlink.com 1.10,2013-10-26 22:55:00,
2013-10-26 19:10:00,53.4,31.0,30.22,WSW,256,7.0,10.0,43,0.00,,,0.00,weatherlink.com 1.10,2013-10-26 23:10:00,
2013-10-26 19:25:00,53.5,31.0,30.22,West,261,12.0,17.0,43,0.00,,,0.00,weatherlink.com 1.10,2013-10-26 23:25:00,
2013-10-26 19:40:00,53.5,32.0,30.22,WSW,253,16.0,21.0,44,0.00,,,0.00,weatherlink.com 1.10,2013-10-26 23:40:00,
2013-10-26 19:55:00,53.4,32.0,30.21,West,272,8.0,17.0,44,0.00,,,0.00,weatherlink.com 1.10,2013-10-26 23:55:00,
2013-10-26 20:10:00,53.3,32.0,30.22,West,278,5.0,16.0,44,0.00,,,0.00,weatherlink.com 1.10,2013-10-27 00:10:00,
2013-10-26 20:25:00,53.3,32.0,30.22,WSW,240,6.0,20.0,44,0.00,,,0.00,weatherlink.com 1.10,2013-10-27 00:25:00,
2013-10-26 20:41:00,53.0,32.0,30.21,WSW,238,8.0,16.0,45,0.00,,,0.00,weatherlink.com 1.10,2013-10-27 00:41:00,
2013-10-26 20:55:00,52.8,32.0,30.22,West,269,14.0,19.0,45,0.00,,,0.00,weatherlink.com 1.10,2013-10-27 00:55:00,
2013-10-26 21:10:00,53.0,32.0,30.21,SSE,162,5.0,25.0,45,0.00,,,0.00,weatherlink.com 1.10,2013-10-27 01:10:00,
2013-10-26 21:25:00,53.0,31.0,30.21,WSW,250,21.0,22.0,44,0.00,,,0.00,weatherlink.com 1.10,2013-10-27 01:25:00,
2013-10-26 21:40:00,53.0,31.0,30.21,WSW,250,15.0,19.0,44,0.00,,,0.00,weatherlink.com 1.10,2013-10-27 01:40:00,
2013-10-26 21:55:00,52.9,31.0,30.21,WSW,238,14.0,21.0,44,0.00,,,0.00,weatherlink.com 1.10,2013-10-27 01:55:00,
2013-10-26 22:10:00,52.8,31.0,30.21,WSW,242,5.0,19.0,44,0.00,,,0.00,weatherlink.com 1.10,2013-10-27 02:10:00,
2013-10-26 22:25:00,52.7,31.0,30.22,WSW,248,12.0,15.0,44,0.00,,,0.00,weatherlink.com 1.10,2013-10-27 02:25:00,
2013-10-26 22:40:00,52.6,32.0,30.23,West,269,5.0,14.0,45,0.00,,,0.00,weatherlink.com 1.10,2013-10-27 02:40:00,
2013-10-26 22:55:00,52.4,32.0,30.24,NW,306,1.0,10.0,46,0.00,,,0.00,weatherlink.com 1.10,2013-10-27 02:55:00,
2013-10-26 23:10:00,52.1,32.0,30.25,WNW,301,4.0,13.0,47,0.00,,,0.00,weatherlink.com 1.10,2013-10-27 03:10:00,
2013-10-26 23:25:00,51.9,33.0,30.25,WNW,286,6.0,13.0,48,0.00,,,0.00,weatherlink.com 1.10,2013-10-27 03:25:00,
2013-10-26 23:40:00,51.8,33.0,30.25,West,271,3.0,12.0,49,0.00,,,0.00,weatherlink.com 1.10,2013-10-27 03:40:00,
2013-10-26 23:55:00,51.7,33.0,30.25,West,280,6.0,10.0,49,0.00,,,0.00,weatherlink.com 1.10,2013-10-27 03:55:00,